Historia METAR Texel International Airport (EHTX)

27 maja 2022

Czas Kod Pogoda Temp. Widoczność Sufit Wiatr METAR/SPECI
7:25 pm
V
57 °F 6¼ mi+ - 280° 280° 15 kt METAR EHKD 271725Z AUTO 28015KT 240V330 9999 SCT050 14/08 Q1021 BLU NOSIG
6:55 pm
V
57 °F 6¼ mi+ - 280° 280° 16 kt METAR EHKD 271655Z AUTO 28016KT 250V320 9999 NCD 14/08 Q1021 BLU NOSIG
6:25 pm
V
59 °F 6¼ mi+ - 280° 280° 16 kt METAR EHKD 271625Z AUTO 28016KT 250V320 9999 FEW044 15/08 Q1021 BLU NOSIG
5:55 pm
V
57 °F 6¼ mi+ - 280° 280° 17 kt METAR EHKD 271555Z AUTO 28017KT 250V320 9999 FEW026 14/08 Q1021 BLU NOSIG
5:25 pm
V
59 °F 6¼ mi+ - 290° 290° 18 kt METAR EHKD 271525Z AUTO 29018KT 250V330 9999 FEW024 15/08 Q1021 BLU NOSIG
5:02 pm
M
57 °F 6¼ mi+ 2.900 ft 290° 290° 15 - 25 kt METAR EHKD 271502Z AUTO 29015G25KT 250V330 9999 SCT025 BKN029 BKN033 14/08 Q1021 BLU NOSIG
4:58 pm
M
57 °F 6¼ mi+ 2.800 ft 290° 290° 15 - 25 kt METAR EHKD 271458Z AUTO 29015G25KT 250V330 9999 SCT024 BKN028 BKN033 14/07 Q1021 WHT NOSIG
4:55 pm
M
59 °F 6¼ mi+ 2.700 ft 290° 290° 17 kt METAR EHKD 271455Z AUTO 29017KT 250V320 9999 SCT023 BKN027 BKN030 15/08 Q1021 WHT NOSIG
4:43 pm
V
57 °F 6¼ mi+ 3.100 ft 290° 290° 18 kt METAR EHKD 271443Z AUTO 29018KT 250V350 9999 SCT024 BKN031 BKN040 14/08 Q1021 WHT NOSIG
4:25 pm
V
59 °F 6¼ mi+ - 290° 290° 18 - 28 kt METAR EHKD 271425Z AUTO 29018G28KT 240V320 9999 FEW024 SCT028 15/08 Q1021 BLU NOSIG
4:01 pm
V
57 °F 6¼ mi+ - 290° 290° 17 - 27 kt METAR EHKD 271401Z AUTO 29017G27KT 240V340 9999 FEW024 14/07 Q1021 BLU NOSIG
3:55 pm
V
59 °F 6¼ mi+ - 290° 290° 18 kt METAR EHKD 271355Z AUTO 29018KT 250V330 9999 SCT025 SCT029 15/08 Q1021 BLU NOSIG
3:38 pm
M
57 °F 6¼ mi+ 2.800 ft 290° 290° 19 kt METAR EHKD 271338Z AUTO 29019KT 260V340 9999 SCT024 BKN028 BKN034 14/08 Q1021 WHT NOSIG
3:31 pm
M
57 °F 6¼ mi+ 2.900 ft 290° 290° 17 - 27 kt METAR EHKD 271331Z AUTO 29017G27KT 250V330 9999 SCT024 BKN029 14/08 Q1021 WHT NOSIG
3:25 pm
V
57 °F 6¼ mi+ 3.200 ft 290° 290° 17 - 27 kt METAR EHKD 271325Z AUTO 29017G27KT 250V320 9999 FEW024 SCT028 BKN032 14/07 Q1021 BLU NOSIG
3:15 pm
M
57 °F 6¼ mi+ 2.800 ft 290° 290° 16 - 26 kt METAR EHKD 271315Z AUTO 29016G26KT 250V330 9999 SCT024 BKN028 BKN032 14/08 Q1021 WHT NOSIG
2:55 pm
V
55 °F 6¼ mi+ - 280° 280° 18 - 28 kt METAR EHKD 271255Z AUTO 28018G28KT 260V320 9999 FEW025 SCT032 13/07 Q1021 BLU NOSIG
2:32 pm
V
55 °F 6¼ mi+ 3.200 ft 290° 290° 18 kt METAR EHKD 271232Z AUTO 29018KT 250V320 9999 FEW024 SCT029 BKN032 13/07 Q1021 BLU NOSIG
2:25 pm
V
57 °F 6¼ mi+ 3.100 ft 290° 290° 17 kt METAR EHKD 271225Z AUTO 29017KT 260V330 9999 SCT024 BKN031 BKN036 14/08 Q1021 WHT NOSIG
2:16 pm
V
57 °F 6¼ mi+ - 280° 280° 18 kt METAR EHKD 271216Z AUTO 28018KT 250V310 9999 SCT024 SCT031 14/07 Q1021 WHT NOSIG
1:55 pm
V
55 °F 6¼ mi+ 3.000 ft 290° 290° 18 kt METAR EHKD 271155Z AUTO 29018KT 250V330 9999 SCT025 BKN030 13/07 Q1021 BLU NOSIG
1:25 pm
M
55 °F 6¼ mi+ 2.500 ft 290° 290° 16 kt METAR EHKD 271125Z AUTO 29016KT 250V330 9999 BKN025 BKN028 OVC034 13/06 Q1021 BLU NOSIG
12:55 pm
V
57 °F 6¼ mi+ - 290° 290° 17 kt METAR EHKD 271055Z AUTO 29017KT 250V330 9999 FEW027 SCT033 14/07 Q1020 BLU NOSIG
12:25 pm
V
55 °F 6¼ mi+ - 290° 290° 17 kt METAR EHKD 271025Z AUTO 29017KT 240V340 9999 SCT028 SCT031 13/06 Q1020 BLU NOSIG
11:55 am
V
57 °F 6¼ mi+ 3.000 ft 290° 290° 16 - 26 kt METAR EHKD 270955Z AUTO 29016G26KT 250V330 9999 SCT026 BKN030 14/07 Q1020 BLU NOSIG
11:25 am
V
57 °F 6¼ mi+ - 290° 290° 17 - 27 kt METAR EHKD 270925Z AUTO 29017G27KT 250V330 9999 SCT027 SCT031 14/07 Q1020 BLU NOSIG
10:55 am
V
57 °F 6¼ mi+ - 290° 290° 16 kt METAR EHKD 270855Z AUTO 29016KT 250V330 9999 FEW029 14/07 Q1020 BLU NOSIG
10:25 am
V
57 °F 6¼ mi+ - 290° 290° 17 - 27 kt METAR EHKD 270825Z AUTO 29017G27KT 260V330 9999 NCD 14/06 Q1019 BLU NOSIG
9:55 am
V
57 °F 6¼ mi+ - 300° 300° 17 kt METAR EHKD 270755Z AUTO 30017KT 250V330 9999 NCD 14/06 Q1019 BLU NOSIG
9:25 am
V
55 °F 6¼ mi+ - 290° 290° 17 kt METAR EHKD 270725Z AUTO 29017KT 250V330 9999 SCT350 13/05 Q1019 BLU NOSIG
8:55 am
V
55 °F 6¼ mi+ - 290° 290° 14 kt METAR EHKD 270655Z AUTO 29014KT 260V330 9999 NCD 13/06 Q1019 BLU NOSIG
8:25 am
V
55 °F 6¼ mi+ - 300° 300° 14 kt METAR EHKD 270625Z AUTO 30014KT 260V340 9999 FEW031 13/06 Q1019 BLU NOSIG
7:55 am
V
55 °F 6¼ mi+ - 300° 300° 14 kt METAR EHKD 270555Z AUTO 30014KT 270V340 9999 NCD 13/06 Q1018 BLU NOSIG
7:25 am
V
55 °F 6¼ mi+ 37.000 ft 300° 300° 11 kt METAR EHKD 270525Z AUTO 30011KT 250V330 9999 BKN370 13/08 Q1018 BLU NOSIG
7:06 am
V
54 °F 6¼ mi+ - 300° 300° 11 kt METAR EHKD 270506Z AUTO 30011KT 270V340 9999 FEW020 12/08 Q1018 BLU NOSIG
7:01 am
V
54 °F 6¼ mi+ - 300° 300° 12 kt METAR EHKD 270501Z AUTO 30012KT 250V340 9999 SCT020 12/08 Q1018 WHT NOSIG
6:57 am
V
54 °F 6¼ mi+ - 290° 290° 12 kt METAR EHKD 270457Z AUTO 29012KT 250V330 9999 FEW019 12/08 Q1018 BLU NOSIG
6:55 am
V
54 °F 6¼ mi+ - 290° 290° 11 kt METAR EHKD 270455Z AUTO 29011KT 260V330 9999 SCT019 SCT023 12/08 Q1018 WHT NOSIG
6:27 am
M
55 °F 6¼ mi+ 2.300 ft 300° 300° 13 kt METAR EHKD 270427Z AUTO 30013KT 260V330 9999 SCT019 BKN023 BKN029 13/09 Q1018 WHT NOSIG
6:25 am
V
55 °F 6¼ mi+ 5.700 ft 290° 290° 12 kt METAR EHKD 270425Z AUTO 29012KT 260V330 9999 SCT019 SCT025 BKN057 13/09 Q1018 WHT NOSIG
6:03 am
V
55 °F 6¼ mi+ 5.700 ft 290° 290° 12 kt METAR EHKD 270403Z AUTO 29012KT 240V320 9999 OVC057 13/08 Q1018 BLU NOSIG
5:55 am
V
55 °F 6¼ mi+ 5.700 ft 280° 280° 11 kt METAR EHKD 270355Z AUTO 28011KT 250V320 9999 OVC057 13/09 Q1018 BLU NOSIG
5:25 am
V
55 °F 6¼ mi+ 6.100 ft 280° 280° 9 kt METAR EHKD 270325Z AUTO 28009KT 250V310 9999 OVC061 13/09 Q1018 BLU NOSIG
4:55 am
V
55 °F 6¼ mi+ 5.800 ft 290° 290° 9 kt METAR EHKD 270255Z AUTO 29009KT 250V320 9999 OVC058 13/10 Q1018 BLU NOSIG
4:25 am
V
55 °F 6¼ mi+ 5.900 ft 290° 290° 7 kt METAR EHKD 270225Z AUTO 29007KT 250V320 9999 OVC059 13/10 Q1018 BLU NOSIG
3:55 am
V
55 °F 6¼ mi+ 6.000 ft 290° 290° 8 kt METAR EHKD 270155Z AUTO 29008KT 260V330 9999 OVC060 13/11 Q1018 BLU NOSIG
3:25 am
V
55 °F 6¼ mi+ 27.000 ft 290° 290° 10 kt METAR EHKD 270125Z AUTO 29010KT 250V330 9999 FEW060 OVC270 13/11 Q1018 BLU NOSIG
2:55 am
V
55 °F 6¼ mi+ 31.000 ft 280° 280° 11 kt METAR EHKD 270055Z AUTO 28011KT 250V320 9999 OVC310 13/11 Q1018 BLU NOSIG
2:25 am
V
55 °F 6¼ mi+ - 280° 280° 12 kt METAR EHKD 270025Z AUTO 28012KT 250V320 9999 SCT300 13/12 Q1018 BLU NOSIG
1:55 am
V
55 °F 6¼ mi+ - 280° 280° 14 kt METAR EHKD 262355Z AUTO 28014KT 9999 SCT044 13/12 Q1017 BLU NOSIG
1:25 am
V
55 °F 6¼ mi+ 3.700 ft 270° 270° 13 kt METAR EHKD 262325Z AUTO 27013KT 9999 BKN037 BKN081 BKN089 13/12 Q1017 BLU NOSIG
1:05 am
V
55 °F 6¼ mi+ 8.300 ft 250° 250° 13 kt METAR EHKD 262305Z AUTO 25013KT 9999 FEW009 FEW015CB SCT037 OVC083 13/13 Q1017 BLU NOSIG
1:01 am
V
57 °F 6¼ mi+ 8.000 ft 250° 250° 13 kt METAR EHKD 262301Z AUTO 25013KT 9999 FEW007 SCT009 FEW015CB BKN080 14/13 Q1017 GRN NOSIG
12:57 am
V
57 °F 6¼ mi+ 8.100 ft 250° 250° 13 kt METAR EHKD 262257Z AUTO 25013KT 9999 FEW007 FEW015CB SCT076 BKN081 14/13 Q1017 BLU NOSIG
12:55 am
V
57 °F 6¼ mi+ 3.500 ft 250° 250° 13 kt METAR EHKD 262255Z AUTO 25013KT 220V280 9999 FEW005 SCT012 FEW015CB BKN035 14/13 Q1017 REDZ GRN NOSIG
12:39 am
M
55 °F 6¼ mi+ 2.800 ft 250° 250° 12 kt METAR EHKD 262239Z AUTO 25012KT 220V280 9999 DZRA FEW015CB BKN028 OVC033 13/13 Q1017 BLU NOSIG
12:31 am
M
55 °F 6¼ mi+ 2.400 ft 250° 250° 12 kt METAR EHKD 262231Z AUTO 25012KT 9999 -RADZ FEW015CB BKN024 BKN037 13/13 Q1017 WHT NOSIG
12:27 am
V
55 °F 6¼ mi+ 3.700 ft 250° 250° 12 kt METAR EHKD 262227Z AUTO 25012KT 9999 -SHRA FEW015CB SCT027 BKN037 13/13 Q1017 BLU NOSIG
12:25 am
V
55 °F 6¼ mi+ 3.900 ft 260° 260° 11 kt METAR EHKD 262225Z AUTO 26011KT 230V300 9999 -SHRA SCT015CB SCT028 BKN039 13/13 Q1017 REDZ WHT NOSIG
12:19 am
V
55 °F 5⅝ mi 4.800 ft 260° 260° 12 kt METAR EHKD 262219Z AUTO 26012KT 240V300 9000 -RA SCT015CB SCT044 BKN048 13/12 Q1017 WHT NOSIG
12:05 am
M
55 °F 3⅛ mi 3.600 ft 270° 270° 15 kt METAR EHKD 262205Z AUTO 27015KT 230V290 5000 RA FEW005 FEW015CB SCT031 BKN036 13/13 Q1018 WHT NOSIG

26 maja 2022

Czas Kod Pogoda Temp. Widoczność Sufit Wiatr METAR/SPECI
11:55 pm
I
57 °F 2⅞ mi 3.700 ft 260° 260° 16 kt METAR EHKD 262155Z AUTO 26016KT 230V290 4700 -SHRA FEW015CB SCT031 OVC037 14/13 Q1017 GRN NOSIG
11:44 pm
I
57 °F 2¾ mi 3.500 ft 250° 250° 17 kt METAR EHKD 262144Z AUTO 25017KT 220V280 4400 SHRA FEW004 FEW015CB SCT026 BKN035 14/13 Q1017 GRN NOSIG
11:25 pm
M
57 °F 3¾ mi 3.300 ft 240° 240° 14 kt METAR EHKD 262125Z AUTO 24014KT 6000 -RA SCT015CB SCT029 BKN033 OVC043 14/13 Q1017 RERA REDZ WHT NOSIG
11:00 pm
M
57 °F 4⅜ mi 2.600 ft 250° 250° 19 kt METAR EHKD 262100Z AUTO 25019KT 210V280 7000 DZ FEW017/// BKN026/// BKN029/// 14/13 Q1017 WHT NOSIG
10:55 pm
V
57 °F 5⅝ mi 3.100 ft 240° 240° 17 kt METAR EHKD 262055Z AUTO 24017KT 9000 DZRA FEW021/// SCT027/// BKN031/// 14/13 Q1017 BLU
10:25 pm
V
57 °F 6¼ mi+ - 240° 240° 17 kt METAR EHKD 262025Z AUTO 24017KT 200V270 9999 FEW033/// SCT037/// 14/12 Q1017 BLU
9:55 pm
V
57 °F 6¼ mi+ 4.100 ft 230° 230° 18 kt METAR EHKD 261955Z AUTO 23018KT 9999 SCT030/// SCT035/// BKN041/// 14/12 Q1017 BLU
9:25 pm
V
57 °F 6¼ mi+ 3.200 ft 230° 230° 19 - 29 kt METAR EHKD 261925Z AUTO 23019G29KT 200V260 9999 BKN032/// BKN037/// OVC048/// 14/12 Q1017 BLU
8:55 pm
V
57 °F 6¼ mi+ 5.200 ft 230° 230° 21 kt METAR EHKD 261855Z AUTO 23021KT 200V260 9999 SCT036/// SCT041/// OVC052/// 14/12 Q1017 BLU
8:25 pm
V
59 °F 6¼ mi+ 5.200 ft 230° 230° 18 kt METAR EHKD 261825Z AUTO 23018KT 190V260 9999 SCT039/// SCT044/// OVC052/// 15/12 Q1017 BLU
7:55 pm
V
59 °F 6¼ mi+ 4.800 ft 230° 230° 19 kt METAR EHKD 261755Z AUTO 23019KT 200V260 9999 FEW032/// OVC048/// 15/12 Q1017 BLU
7:26 pm
M
57 °F 6¼ mi+ 2.800 ft 230° 230° 18 kt METAR EHKD 261726Z AUTO 23018KT 200V260 9999 SCT025/// OVC028/// 14/12 Q1017 BLU
7:25 pm
M
57 °F 6¼ mi+ 2.600 ft 230° 230° 17 kt METAR EHKD 261725Z AUTO 23017KT 200V260 9999 SCT023/// OVC026/// 14/12 Q1017 REDZ WHT
7:15 pm
M
57 °F 3¾ mi 2.300 ft 230° 230° 20 kt METAR EHKD 261715Z AUTO 23020KT 200V260 6000 DZRA BKN023/// OVC027/// 14/12 Q1017 WHT TEMPO 3000 -RADZ FEW012 BKN016
7:06 pm
M
59 °F 6¼ mi+ 2.700 ft 230° 230° 20 kt METAR EHKD 261706Z AUTO 23020KT 200V260 9999 FEW023/// OVC027/// 15/12 Q1017 BLU NOSIG
6:55 pm
M
59 °F 6¼ mi+ 2.800 ft 230° 230° 20 kt METAR EHKD 261655Z AUTO 23020KT 200V260 9999 BKN028/// OVC031/// 15/12 Q1017 BLU NOSIG
6:25 pm
M
59 °F 6¼ mi+ 2.900 ft 230° 230° 18 kt METAR EHKD 261625Z AUTO 23018KT 190V260 9999 OVC029/// 15/12 Q1018 BLU NOSIG
5:55 pm
V
59 °F 6¼ mi+ 3.800 ft 230° 230° 18 kt METAR EHKD 261555Z AUTO 23018KT 190V260 9999 OVC038/// 15/12 Q1018 BLU NOSIG
5:25 pm
V
59 °F 6¼ mi+ 4.600 ft 230° 230° 18 kt METAR EHKD 261525Z AUTO 23018KT 200V260 9999 FEW036/// SCT041/// OVC046/// 15/12 Q1018 BLU NOSIG
4:55 pm
V
59 °F 6¼ mi+ 3.900 ft 230° 230° 18 kt METAR EHKD 261455Z AUTO 23018KT 180V260 9999 OVC039/// 15/11 Q1018 BLU NOSIG
4:25 pm
V
59 °F 6¼ mi+ 4.700 ft 230° 230° 18 kt METAR EHKD 261425Z AUTO 23018KT 200V260 9999 FEW011/// BKN047/// OVC053/// 15/12 Q1019 BLU TEMPO SCT010
4:19 pm
V
59 °F 6¼ mi+ 4.700 ft 230° 230° 19 kt METAR EHKD 261419Z AUTO 23019KT 9999 FEW011/// BKN047/// OVC053/// 15/12 Q1019 BLU TEMPO SCT010
3:57 pm
V
59 °F 6¼ mi+ 6.400 ft 230° 230° 19 kt METAR EHKD 261357Z AUTO 23019KT 9999 SCT011/// BKN064/// OVC078/// 15/12 Q1019 GRN TEMPO SCT010
3:55 pm
V
59 °F 6¼ mi+ 6.300 ft 230° 230° 18 kt METAR EHKD 261355Z AUTO 23018KT 200V260 9999 FEW011/// SCT057/// BKN063/// 15/12 Q1019 BLU TEMPO SCT010
3:30 pm
V
59 °F 6¼ mi+ 5.400 ft 230° 230° 17 kt METAR EHKD 261330Z AUTO 23017KT 200V260 9999 FEW011/// OVC054/// 15/11 Q1019 BLU TEMPO SCT010
3:25 pm
V
59 °F 6¼ mi+ 5.400 ft 240° 240° 18 kt METAR EHKD 261325Z AUTO 24018KT 190V260 9999 SCT010/// OVC054/// 15/12 Q1019 GRN TEMPO SCT010
3:19 pm
V
59 °F 6¼ mi+ 5.400 ft 240° 240° 18 kt METAR EHKD 261319Z AUTO 24018KT 190V260 9999 SCT010/// BKN054/// OVC060/// 15/12 Q1019 GRN TEMPO SCT010
2:55 pm
V
59 °F 6¼ mi+ 6.600 ft 240° 240° 18 kt METAR EHKD 261255Z AUTO 24018KT 220V280 9999 FEW012/// OVC066/// 15/11 Q1019 BLU TEMPO SCT013
2:25 pm
V
59 °F 6¼ mi+ 7.300 ft 230° 230° 19 kt METAR EHKD 261225Z AUTO 23019KT 200V270 9999 SCT011/// BKN073/// OVC140/// 15/11 Q1019 GRN TEMPO SCT013
2:16 pm
V
59 °F 6¼ mi+ 7.300 ft 240° 240° 18 kt METAR EHKD 261216Z AUTO 24018KT 200V270 9999 SCT012/// BKN073/// BKN089/// 15/12 Q1019 GRN TEMPO SCT013
2:12 pm
V
59 °F 6¼ mi+ 8.900 ft 240° 240° 18 kt METAR EHKD 261212Z AUTO 24018KT 200V270 9999 FEW012/// SCT074/// BKN089/// 15/12 Q1019 BLU TEMPO SCT013
2:08 pm
V
59 °F 6¼ mi+ 15.000 ft 230° 230° 17 kt METAR EHKD 261208Z AUTO 23017KT 200V270 9999 FEW011/// SCT089/// OVC150/// 15/11 Q1019 BLU NOSIG
2:01 pm
M
59 °F 6¼ mi+ 1.100 ft 240° 240° 17 kt METAR EHKD 261201Z AUTO 24017KT 200V270 9999 BKN011/// BKN067/// BKN092/// 15/11 Q1019 GRN NOSIG
1:57 pm
V
59 °F 6¼ mi+ 6.700 ft 240° 240° 17 kt METAR EHKD 261157Z AUTO 24017KT 210V270 9999 SCT011/// BKN067/// BKN092/// 15/12 Q1019 GRN NOSIG
1:55 pm
V
59 °F 6¼ mi+ 6.700 ft 240° 240° 17 kt METAR EHKD 261155Z AUTO 24017KT 210V270 9999 SCT011 BKN067 OVC150 15/12 Q1019 GRN NOSIG
1:44 pm
V
59 °F 6¼ mi+ 15.000 ft 240° 240° 16 kt METAR EHKD 261144Z AUTO 24016KT 200V260 9999 SCT011 OVC150 15/12 Q1019 GRN NOSIG
1:31 pm
M
59 °F 6¼ mi+ 1.300 ft 240° 240° 16 kt METAR EHKD 261131Z AUTO 24016KT 200V280 9999 SCT011 BKN013 OVC140 15/12 Q1019 GRN NOSIG
1:25 pm
V
59 °F 6¼ mi+ 15.000 ft 240° 240° 16 kt METAR EHKD 261125Z AUTO 24016KT 210V270 9999 FEW012 OVC150 15/11 Q1019 BLU NOSIG
12:55 pm
V
61 °F 6¼ mi+ 15.000 ft 240° 240° 17 kt METAR EHKD 261055Z AUTO 24017KT 210V270 9999 OVC150 16/12 Q1019 BLU NOSIG
12:25 pm
V
59 °F 6¼ mi+ 6.700 ft 250° 250° 15 kt METAR EHKD 261025Z AUTO 25015KT 220V280 9999 BKN067 BKN093 OVC140 15/12 Q1019 BLU NOSIG
11:55 am
V
59 °F 6¼ mi+ 15.000 ft 250° 250° 15 kt METAR EHKD 260955Z AUTO 25015KT 220V290 9999 SCT068 SCT098 BKN150 15/11 Q1019 BLU NOSIG
11:25 am
V
59 °F 6¼ mi+ 7.200 ft 250° 250° 14 kt METAR EHKD 260925Z AUTO 25014KT 230V290 9999 FEW011 OVC072 15/11 Q1019 BLU NOSIG
10:55 am
V
59 °F 6¼ mi+ - 260° 260° 14 kt METAR EHKD 260855Z AUTO 26014KT 220V290 9999 FEW012 15/12 Q1019 BLU NOSIG
10:25 am
V
59 °F 6¼ mi+ 6.000 ft 260° 260° 15 kt METAR EHKD 260825Z AUTO 26015KT 230V290 9999 FEW055 BKN060 15/12 Q1018 BLU NOSIG
9:55 am
V
59 °F 6¼ mi+ - 260° 260° 13 kt METAR EHKD 260755Z AUTO 26013KT 220V280 9999 SCT054 15/12 Q1018 BLU NOSIG
9:25 am
V
59 °F 6¼ mi+ - 260° 260° 13 kt METAR EHKD 260725Z AUTO 26013KT 230V290 9999 NCD 15/12 Q1018 BLU NOSIG
8:55 am
V
57 °F 6¼ mi+ - 260° 260° 14 kt METAR EHKD 260655Z AUTO 26014KT 240V300 9999 NCD 14/11 Q1018 BLU NOSIG
8:25 am
V
57 °F 6¼ mi+ 6.200 ft 260° 260° 12 kt METAR EHKD 260625Z AUTO 26012KT 230V290 9999 BKN062 14/11 Q1017 BLU NOSIG
7:55 am
V
57 °F 6¼ mi+ 34.000 ft 260° 260° 12 kt METAR EHKD 260555Z AUTO 26012KT 230V290 9999 SCT061 BKN340 14/11 Q1017 BLU NOSIG
7:25 am
V
55 °F 6¼ mi+ 6.200 ft 260° 260° 12 kt METAR EHKD 260525Z AUTO 26012KT 230V300 9999 OVC062 13/10 Q1017 BLU NOSIG
6:55 am
V
57 °F 6¼ mi+ - 270° 270° 11 kt METAR EHKD 260455Z AUTO 27011KT 9999 FEW063 14/10 Q1016 BLU NOSIG
6:25 am
V
55 °F 6¼ mi+ 6.400 ft 260° 260° 10 kt METAR EHKD 260425Z AUTO 26010KT 230V290 9999 OVC064 13/11 Q1016 BLU
5:55 am
V
55 °F 6¼ mi+ 6.600 ft 270° 270° 8 kt METAR EHKD 260355Z AUTO 27008KT 240V300 9999 OVC066 13/10 Q1016 BLU
5:25 am
V
55 °F 6¼ mi+ 6.600 ft 260° 260° 8 kt METAR EHKD 260325Z AUTO 26008KT 230V290 9999 BKN066 13/10 Q1016 BLU
4:55 am
V
55 °F 6¼ mi+ 6.600 ft 280° 280° 10 kt METAR EHKD 260255Z AUTO 28010KT 250V320 9999 BKN066 13/09 Q1015 BLU
4:25 am
V
55 °F 6¼ mi+ - 270° 270° 12 kt METAR EHKD 260225Z AUTO 27012KT 250V310 9999 NCD 13/10 Q1015 BLU
3:55 am
V
55 °F 6¼ mi+ 7.000 ft 280° 280° 13 kt METAR EHKD 260155Z AUTO 28013KT 250V310 9999 BKN070 13/10 Q1015 BLU
3:25 am
V
55 °F 6¼ mi+ - 270° 270° 11 kt METAR EHKD 260125Z AUTO 27011KT 230V300 9999 FEW074 13/10 Q1015 BLU
2:55 am
V
55 °F 5⅝ mi - 260° 260° 9 kt METAR EHKD 260055Z AUTO 26009KT 220V300 9000 BR SCT039 SCT074 13/12 Q1014 BLU
2:25 am
V
55 °F 6¼ mi+ - 250° 250° 11 kt METAR EHKD 260025Z AUTO 25011KT 220V280 9999 FEW073 13/12 Q1014 BLU RMK CB INFO NOT AVBL
1:55 am
V
55 °F 5⅝ mi 7.000 ft 250° 250° 13 kt METAR EHKD 252355Z AUTO 25013KT 9000 BR BKN070 13/12 Q1014 BLU
1:25 am
V
57 °F 5 mi 6.700 ft 250° 250° 13 kt METAR EHKD 252325Z AUTO 25013KT 220V280 8000 BR OVC067 14/12 Q1014 BLU
12:55 am
V
55 °F 5 mi 7.400 ft 240° 240° 13 kt METAR EHKD 252255Z AUTO 24013KT 210V270 8000 BR FEW061 BKN074 13/12 Q1014 BLU
12:37 am
V
57 °F 5 mi 6.000 ft 240° 240° 14 kt METAR EHKD 252237Z AUTO 24014KT 210V270 8000 BR BKN060 BKN065 BKN086 14/12 Q1014 BLU
12:25 am
V
57 °F 5 mi 5.900 ft 240° 240° 15 kt METAR EHKD 252225Z AUTO 24015KT 210V270 8000 BR FEW040 BKN059 OVC064 14/12 Q1014 BLU
12:06 am
M
57 °F 4⅜ mi 5.300 ft 240° 240° 15 kt METAR EHKD 252206Z AUTO 24015KT 7000 -RA FEW007 OVC053 14/12 Q1014 WHT
12:02 am
M
57 °F 4⅜ mi 5.100 ft 240° 240° 15 kt METAR EHKD 252202Z AUTO 24015KT 210V270 7000 BR FEW007 SCT008 OVC051 14/12 Q1014 GRN

25 maja 2022

Czas Kod Pogoda Temp. Widoczność Sufit Wiatr METAR/SPECI
11:55 pm
M
57 °F 5 mi 1.000 ft 240° 240° 16 kt METAR EHKD 252155Z AUTO 24016KT 210V270 8000 BR FEW007 SCT009 BKN010 14/12 Q1014 GRN
11:32 pm
I
57 °F 5 mi 900 ft 240° 240° 13 kt METAR EHKD 252132Z AUTO 24013KT 200V270 8000 BR SCT007 BKN009 BKN011 FEW015CB 14/13 Q1014 GRN
11:25 pm
M
57 °F 3¾ mi 3.100 ft 240° 240° 16 kt METAR EHKD 252125Z AUTO 24016KT 6000 -RA FEW008 SCT010 FEW015CB BKN031 14/13 Q1014 RERA REDZ GRN
11:15 pm
M
57 °F 3¾ mi 1.000 ft 240° 240° 16 kt METAR EHKD 252115Z AUTO 24016KT 6000 RA FEW007 SCT009 BKN010 FEW015CB 14/12 Q1014 GRN
11:11 pm
M
57 °F 3¾ mi 2.900 ft 240° 240° 16 kt METAR EHKD 252111Z AUTO 24016KT 6000 +DZRA FEW007 SCT010 FEW015CB BKN029 14/12 Q1013 GRN
11:07 pm
V
57 °F 5 mi 5.000 ft 240° 240° 16 kt METAR EHKD 252107Z AUTO 24016KT 8000 DZ FEW008 FEW015CB SCT026 OVC050 14/12 Q1013 BLU
10:57 pm
V
57 °F 5 mi 3.600 ft 230° 230° 17 kt METAR EHKD 252057Z AUTO 23017KT 200V260 8000 -RADZ FEW008 SCT012 FEW015CB BKN036 14/12 Q1013 GRN
10:38 pm
V
57 °F 6¼ mi+ 3.500 ft 240° 240° 19 kt METAR EHKD 252038Z AUTO 24019KT 200V260 9999 FEW008 SCT011 FEW015CB BKN035 14/12 Q1013 GRN
10:25 pm
I
57 °F 6¼ mi+ 900 ft 230° 230° 17 kt METAR EHKD 252025Z AUTO 23017KT 200V260 9999 FEW008 BKN009 BKN011 FEW015CB 14/12 Q1013 GRN
10:19 pm
I
57 °F 6¼ mi+ 900 ft 230° 230° 17 kt METAR EHKD 252019Z AUTO 23017KT 200V260 9999 FEW008 BKN009 BKN012 FEW015CB 14/12 Q1013 GRN
10:15 pm
V
57 °F 6¼ mi+ 4.300 ft 230° 230° 17 kt METAR EHKD 252015Z AUTO 23017KT 200V260 9999 FEW008 SCT009 BKN043 14/12 Q1013 GRN
10:10 pm
V
57 °F 6¼ mi+ 4.900 ft 230° 230° 17 kt METAR EHKD 252010Z AUTO 23017KT 9999 FEW009 SCT011 OVC049 14/12 Q1013 GRN
9:55 pm
V
57 °F 6¼ mi+ 7.300 ft 230° 230° 19 - 29 kt METAR EHKD 251955Z AUTO 23019G29KT 9999 FEW008 BKN073 BKN080 14/12 Q1013 BLU
9:40 pm
V
57 °F 6¼ mi+ 4.300 ft 230° 230° 19 kt METAR EHKD 251940Z AUTO 23019KT 200V260 9999 FEW008 BKN043 BKN048 14/12 Q1012 BLU
9:37 pm
V
57 °F 6¼ mi+ 4.400 ft 230° 230° 20 kt METAR EHKD 251937Z AUTO 23020KT 200V260 9999 FEW008 SCT010 BKN044 14/12 Q1012 GRN NOSIG
9:25 pm
M
57 °F 6¼ mi+ 1.000 ft 230° 230° 19 kt METAR EHKD 251925Z AUTO 23019KT 190V260 9999 FEW009 BKN010 OVC039 14/12 Q1012 GRN TEMPO 3500 DZRA FEW007 SCT011
8:55 pm
M
57 °F 6¼ mi+ 1.300 ft 230° 230° 21 kt METAR EHKD 251855Z AUTO 23021KT 200V260 9999 SCT010 BKN013 OVC045 14/12 Q1012 GRN TEMPO 3500 DZRA FEW007 SCT011
8:25 pm
M
57 °F 6¼ mi+ 1.000 ft 230° 230° 21 kt METAR EHKD 251825Z AUTO 23021KT 190V250 9999 BKN010 BKN012 BKN054 14/12 Q1012 GRN TEMPO 3500 DZRA FEW007 SCT011
7:55 pm
M
57 °F 6¼ mi+ 1.300 ft 230° 230° 20 - 30 kt METAR EHKD 251755Z AUTO 23020G30KT 190V260 9999 SCT011 BKN013 OVC059 14/12 Q1012 GRN TEMPO 3500 DZRA FEW007 SCT011
7:25 pm
M
57 °F 6¼ mi+ 1.300 ft 230° 230° 19 kt METAR EHKD 251725Z AUTO 23019KT 190V260 9999 SCT011 BKN013 OVC016 14/12 Q1012 GRN TEMPO 3500 DZRA FEW007 SCT011
7:12 pm
M
57 °F 5⅝ mi 1.400 ft 230° 230° 20 - 32 kt METAR EHKD 251712Z AUTO 23020G32KT 190V260 9000 BR SCT011 BKN014 OVC030 14/11 Q1012 GRN TEMPO 3500 DZRA FEW007 SCT011
7:08 pm
M
57 °F 5⅝ mi 1.500 ft 230° 230° 20 - 32 kt METAR EHKD 251708Z AUTO 23020G32KT 190V260 9000 BR FEW010 SCT013 BKN015 14/11 Q1012 GRN TEMPO 3500 DZRA FEW007 SCT011
7:03 pm
M
57 °F 6¼ mi+ 1.500 ft 230° 230° 22 kt METAR EHKD 251703Z AUTO 23022KT 190V260 9999 FEW010 SCT013 BKN015 14/11 Q1012 GRN TEMPO 3500 DZRA FEW007 SCT011
6:59 pm
M
57 °F 6¼ mi+ 2.900 ft 230° 230° 22 kt METAR EHKD 251659Z AUTO 23022KT 200V260 9999 FEW010 SCT013 BKN029 14/11 Q1012 GRN TEMPO 3500 DZRA FEW007 SCT011
6:55 pm
M
57 °F 6¼ mi+ 1.900 ft 230° 230° 21 kt METAR EHKD 251655Z AUTO 23021KT 200V260 9999 FEW010 SCT012 BKN019 14/11 Q1012 GRN TEMPO 3500 DZRA FEW007 SCT011
6:41 pm
M
57 °F 6¼ mi+ 2.300 ft 230° 230° 21 - 32 kt METAR EHKD 251641Z AUTO 23021G32KT 200V270 9999 FEW011 SCT016 BKN023 14/11 Q1012 WHT TEMPO 3500 DZRA FEW007 SCT011
6:25 pm
M
57 °F 6¼ mi+ 1.400 ft 220° 220° 21 - 31 kt METAR EHKD 251625Z AUTO 22021G31KT 190V250 9999 FEW012 BKN014 OVC024 14/11 Q1012 GRN TEMPO 3500 DZRA FEW007 SCT011
6:11 pm
M
57 °F 6¼ mi+ 1.400 ft 220° 220° 21 kt METAR EHKD 251611Z AUTO 22021KT 190V250 9999 FEW012 BKN014 BKN016 14/11 Q1012 GRN TEMPO 3500 DZRA FEW007 SCT011
6:03 pm
M
57 °F 6¼ mi+ 2.500 ft 220° 220° 19 kt METAR EHKD 251603Z AUTO 22019KT 190V250 9999 FEW012 SCT015 OVC025 14/12 Q1012 WHT TEMPO 3500 DZRA FEW007 SCT011
5:55 pm
M
55 °F 3⅛ mi 2.600 ft 220° 220° 19 kt METAR EHKD 251555Z AUTO 22019KT 190V250 5000 -DZ FEW007 SCT022 BKN026 13/12 Q1012 WHT TEMPO 3500 DZRA FEW007 SCT011
5:38 pm
I
55 °F 2⅛ mi 1.800 ft 220° 220° 22 kt METAR EHKD 251538Z AUTO 22022KT 180V260 3500 R21/P3000N BR FEW007 SCT014 BKN018 13/11 Q1012 YLO TEMPO 3500 DZRA FEW007 SCT011
5:33 pm
I
57 °F 2⅜ mi 1.700 ft 220° 220° 22 kt METAR EHKD 251533Z AUTO 22022KT 190V260 3800 BR FEW007 SCT014 BKN017 14/11 Q1012 GRN TEMPO 3500 DZRA FEW007 SCT011
5:27 pm
M
57 °F 6¼ mi+ 1.500 ft 220° 220° 22 kt METAR EHKD 251527Z AUTO 22022KT 180V260 9999 SCT013 BKN015 OVC028 14/11 Q1012 GRN TEMPO SCT013
5:25 pm
V
57 °F 6¼ mi+ 3.100 ft 220° 220° 22 kt METAR EHKD 251525Z AUTO 22022KT 190V250 9999 FEW013 BKN031 BKN036 14/11 Q1012 BLU NOSIG
5:01 pm
V
57 °F 6¼ mi+ 4.800 ft 220° 220° 25 - 35 kt METAR EHKD 251501Z AUTO 22025G35KT 190V260 9999 FEW013 SCT031 BKN048 14/11 Q1012 BLU NOSIG
4:55 pm
V
59 °F 6¼ mi+ 5.100 ft 220° 220° 23 - 33 kt METAR EHKD 251455Z AUTO 22023G33KT 190V260 9999 FEW014 OVC051 15/11 Q1012 BLU NOSIG
Starsze dane

Pobierz naszą aplikację

Łatwy dostęp do całej pogody lotniczej na telefonie komórkowym i tablecie.
Z wieloma funkcjami niedostępnymi na stronie internetowej, takimi jak wsparcie offline i osobista lista lotnisk.

My i osoby trzecie śledzimy twoje zachowanie w internecie na naszej stronie za pomocą plików cookie. Jeśli kontynuujesz, zakładamy, że zgadzasz się z naszą polityką plików cookie. Dowiedz się więcej